createdAt,value
2022-10-14T00:01:39.801Z,23.83
2022-10-14T00:04:07.054Z,23.43
2022-10-14T00:06:34.682Z,24.13
2022-10-14T00:09:05.869Z,23.43
2022-10-14T00:11:33.729Z,24.13
2022-10-14T00:14:03.987Z,23.93
2022-10-14T00:16:33.143Z,23.97
2022-10-14T00:19:00.288Z,24.63
2022-10-14T00:21:27.965Z,23.20
2022-10-14T00:23:55.219Z,24.23
2022-10-14T00:26:24.108Z,24.07
2022-10-14T00:28:51.481Z,23.87
2022-10-14T00:31:19.132Z,24.20
2022-10-14T00:33:46.498Z,23.43
2022-10-14T00:36:14.904Z,24.83
2022-10-14T00:38:42.203Z,23.77
2022-10-14T00:41:11.523Z,23.83
2022-10-14T00:44:11.295Z,24.43
2022-10-14T00:46:39.595Z,24.27
2022-10-14T00:49:17.648Z,24.77
2022-10-14T00:51:48.599Z,24.50
2022-10-14T00:54:17.091Z,25.53
2022-10-14T00:56:45.539Z,24.97
2022-10-14T00:59:12.719Z,25.27
2022-10-14T01:01:39.867Z,25.70
2022-10-14T01:04:06.972Z,25.43
2022-10-14T01:06:36.785Z,24.60
2022-10-14T01:09:06.724Z,25.70
2022-10-14T01:12:09.772Z,25.17
2022-10-14T01:14:48.075Z,25.53
2022-10-14T01:17:19.752Z,24.57
2022-10-14T01:19:52.959Z,26.90
2022-10-14T01:22:22.305Z,26.47
2022-10-14T01:25:06.746Z,26.47
2022-10-14T01:27:39.912Z,25.93
2022-10-14T01:30:12.150Z,25.93
2022-10-14T01:32:48.468Z,26.50
2022-10-14T01:35:27.596Z,25.93
2022-10-14T01:37:58.447Z,26.13
2022-10-14T01:40:30.284Z,25.50
2022-10-14T01:42:59.698Z,25.97
2022-10-14T01:45:27.640Z,25.00
2022-10-14T01:47:55.434Z,24.73
2022-10-14T01:50:24.657Z,23.50
2022-10-14T01:52:55.495Z,24.27
2022-10-14T01:55:26.115Z,24.43
2022-10-14T01:57:54.320Z,23.57
2022-10-14T02:00:21.463Z,24.00
2022-10-14T02:02:48.954Z,22.63
2022-10-14T02:05:19.620Z,23.00
2022-10-14T02:07:49.071Z,21.97
2022-10-14T02:10:28.159Z,22.00
2022-10-14T02:13:01.213Z,21.50
2022-10-14T02:15:42.527Z,20.90
2022-10-14T02:18:09.614Z,19.83
2022-10-14T02:20:38.807Z,20.00
2022-10-14T02:23:09.450Z,20.83
2022-10-14T02:25:38.419Z,19.23
2022-10-14T02:28:08.009Z,19.83
2022-10-14T02:30:37.749Z,20.07
2022-10-14T02:33:05.450Z,19.80
2022-10-14T02:35:34.361Z,18.63
2022-10-14T02:38:01.590Z,19.70
2022-10-14T02:40:37.756Z,18.13
2022-10-14T02:43:07.914Z,17.47
2022-10-14T02:45:35.457Z,19.07
2022-10-14T02:48:02.530Z,17.77
2022-10-14T02:50:29.606Z,17.93
2022-10-14T02:52:56.676Z,17.17
2022-10-14T02:55:24.022Z,17.93
2022-10-14T02:57:51.097Z,17.00
2022-10-14T03:00:18.571Z,17.67
2022-10-14T03:02:45.675Z,15.87
2022-10-14T03:05:12.763Z,16.40
2022-10-14T03:07:39.951Z,16.53
2022-10-14T03:10:07.123Z,16.23
2022-10-14T03:12:34.228Z,18.67
2022-10-14T03:15:01.733Z,20.27
2022-10-14T03:17:28.799Z,19.53
2022-10-14T03:19:55.907Z,20.80
2022-10-14T03:22:23.279Z,20.77
2022-10-14T03:24:50.687Z,21.03
2022-10-14T03:27:17.751Z,21.97
2022-10-14T03:29:44.799Z,21.63
2022-10-14T03:32:11.933Z,22.00
2022-10-14T03:34:39.013Z,21.87
2022-10-14T03:37:06.446Z,22.07
2022-10-14T03:39:33.536Z,21.17
2022-10-14T03:42:00.729Z,20.90
2022-10-14T03:44:27.935Z,22.03
2022-10-14T03:46:54.991Z,22.10
2022-10-14T03:49:22.136Z,20.77
2022-10-14T03:51:49.207Z,20.23
2022-10-14T03:54:16.306Z,21.07
2022-10-14T03:56:43.430Z,20.10
2022-10-14T03:59:10.493Z,20.63
2022-10-14T04:01:37.589Z,19.73
2022-10-14T04:04:04.787Z,19.73
2022-10-14T04:06:31.872Z,19.30
2022-10-14T04:08:59.118Z,17.90
2022-10-14T04:11:26.199Z,17.23
2022-10-14T04:13:53.253Z,16.50
2022-10-14T04:16:20.341Z,15.57
2022-10-14T04:18:47.414Z,14.77
2022-10-14T04:21:14.638Z,14.00
2022-10-14T04:23:41.768Z,13.70
2022-10-14T04:26:09.800Z,14.47
2022-10-14T04:28:37.207Z,14.13
2022-10-14T04:31:04.571Z,14.03
2022-10-14T04:33:31.791Z,14.03
2022-10-14T04:36:02.841Z,13.73
2022-10-14T04:38:30.247Z,14.13
2022-10-14T04:40:57.956Z,13.17
2022-10-14T04:43:25.068Z,14.07
2022-10-14T04:45:52.177Z,13.23
2022-10-14T04:48:19.285Z,13.37
2022-10-14T04:50:46.350Z,12.97
2022-10-14T04:53:14.402Z,13.37
2022-10-14T04:55:42.384Z,12.67
2022-10-14T04:58:09.646Z,12.90
2022-10-14T05:00:36.724Z,12.77
2022-10-14T05:03:03.812Z,12.07
2022-10-14T05:05:30.913Z,11.63
2022-10-14T05:07:58.159Z,11.47
2022-10-14T05:10:25.380Z,8.83
2022-10-14T05:12:52.526Z,6.20
2022-10-14T05:15:19.602Z,5.70
2022-10-14T05:17:46.658Z,4.97
2022-10-14T05:20:14.002Z,4.30
2022-10-14T05:22:41.160Z,4.00
2022-10-14T05:25:08.365Z,3.97
2022-10-14T05:27:35.438Z,4.00
2022-10-14T05:30:02.703Z,3.80
2022-10-14T05:32:29.804Z,2.83
2022-10-14T05:34:56.950Z,3.20
2022-10-14T05:37:24.033Z,2.80
2022-10-14T05:39:51.116Z,2.63
2022-10-14T05:42:18.232Z,2.67
2022-10-14T05:44:45.306Z,3.03
2022-10-14T05:47:12.466Z,2.60
2022-10-14T05:49:39.600Z,2.70
2022-10-14T05:52:06.841Z,2.80
2022-10-14T05:54:34.003Z,2.67
2022-10-14T05:57:01.093Z,2.33
2022-10-14T05:59:29.927Z,2.77
2022-10-14T06:01:57.239Z,2.83
2022-10-14T06:04:24.352Z,2.50
2022-10-14T06:06:51.435Z,2.40
2022-10-14T06:09:18.859Z,2.70
2022-10-14T06:11:46.051Z,2.33
2022-10-14T06:14:13.959Z,2.50
2022-10-14T06:16:41.401Z,2.20
2022-10-14T06:19:08.902Z,2.47
2022-10-14T06:21:37.090Z,2.10
2022-10-14T06:24:04.841Z,2.43
2022-10-14T06:26:31.918Z,2.37
2022-10-14T06:28:59.044Z,2.50
2022-10-14T06:31:29.929Z,2.20
2022-10-14T06:33:59.383Z,2.10
2022-10-14T06:36:26.728Z,2.37
2022-10-14T06:38:53.793Z,2.30
2022-10-14T06:41:20.914Z,2.30
2022-10-14T06:43:47.977Z,2.33
2022-10-14T06:46:15.081Z,2.40
2022-10-14T06:48:44.762Z,2.20
2022-10-14T06:51:13.911Z,2.00
2022-10-14T06:53:41.050Z,2.10
2022-10-14T06:56:09.328Z,2.27
2022-10-14T06:58:36.495Z,3.07
2022-10-14T07:01:07.296Z,2.20
2022-10-14T07:03:39.246Z,2.20
2022-10-14T07:06:07.221Z,1.93
2022-10-14T07:08:34.383Z,2.10
2022-10-14T07:11:01.675Z,1.87
2022-10-14T07:13:28.752Z,2.20
2022-10-14T07:15:55.886Z,1.93
2022-10-14T07:18:23.111Z,2.10
2022-10-14T07:20:50.224Z,2.20
2022-10-14T07:23:17.483Z,2.10
2022-10-14T07:25:44.619Z,2.30
2022-10-14T07:28:11.763Z,1.93
2022-10-14T07:30:38.920Z,2.27
2022-10-14T07:33:06.043Z,2.33
2022-10-14T07:35:33.146Z,2.60
2022-10-14T07:38:00.716Z,2.17
2022-10-14T07:40:27.879Z,2.40
2022-10-14T07:42:55.017Z,1.83
2022-10-14T07:45:22.223Z,2.10
2022-10-14T07:47:50.565Z,2.37
2022-10-14T07:50:18.069Z,1.97
2022-10-14T07:52:45.200Z,2.20
2022-10-14T07:55:12.404Z,1.70
2022-10-14T07:57:39.667Z,2.10
2022-10-14T08:00:07.137Z,2.10
2022-10-14T08:02:34.239Z,2.23
2022-10-14T08:05:25.693Z,2.00
2022-10-14T08:07:48.959Z,1.83
2022-10-14T08:10:16.335Z,2.37
2022-10-14T08:12:43.547Z,2.10
2022-10-14T08:15:10.873Z,1.80
2022-10-14T08:17:37.994Z,2.00
2022-10-14T08:20:05.312Z,1.83
2022-10-14T08:22:32.508Z,1.70
2022-10-14T08:24:59.651Z,2.00
2022-10-14T08:27:26.777Z,1.90
2022-10-14T08:29:54.755Z,2.00
2022-10-14T08:32:23.480Z,1.70
2022-10-14T08:34:51.034Z,1.87
2022-10-14T08:37:18.129Z,1.90
2022-10-14T08:39:45.282Z,1.60
2022-10-14T08:42:16.204Z,2.03
2022-10-14T08:44:45.367Z,1.80
2022-10-14T08:47:16.510Z,2.30
2022-10-14T08:49:55.231Z,1.90
2022-10-14T08:52:26.204Z,1.67
2022-10-14T08:54:56.608Z,1.77
2022-10-14T08:57:25.935Z,2.00
2022-10-14T08:59:53.100Z,1.87
2022-10-14T09:02:23.406Z,1.90
2022-10-14T09:04:50.709Z,1.70
2022-10-14T09:07:18.753Z,1.87
2022-10-14T09:09:49.933Z,2.03
2022-10-14T09:12:18.485Z,1.77
2022-10-14T09:14:48.132Z,2.13
2022-10-14T09:17:18.307Z,1.90
2022-10-14T09:19:54.635Z,1.60
2022-10-14T09:22:22.082Z,1.97
2022-10-14T09:24:49.432Z,1.63
2022-10-14T09:27:18.009Z,2.27
2022-10-14T09:29:51.132Z,1.93
2022-10-14T09:32:29.403Z,2.43
2022-10-14T09:34:57.895Z,1.77
2022-10-14T09:37:25.244Z,1.90
2022-10-14T09:39:54.059Z,1.70
2022-10-14T09:42:24.867Z,1.70
2022-10-14T09:45:12.996Z,1.77
2022-10-14T09:47:46.174Z,1.70
2022-10-14T09:50:21.939Z,1.70
2022-10-14T09:52:53.688Z,1.77
2022-10-14T09:55:24.003Z,2.20
2022-10-14T09:58:14.631Z,1.90
2022-10-14T10:00:43.086Z,2.13
2022-10-14T10:03:24.705Z,1.60
2022-10-14T10:06:00.605Z,1.90
2022-10-14T10:08:27.747Z,1.83
2022-10-14T10:11:03.780Z,2.00
2022-10-14T10:13:36.124Z,1.60
2022-10-14T10:16:04.637Z,1.97
2022-10-14T10:18:31.742Z,1.90
2022-10-14T10:21:06.363Z,1.80
2022-10-14T10:23:34.914Z,1.70
2022-10-14T10:26:25.857Z,1.90
2022-10-14T10:28:53.960Z,1.67
2022-10-14T10:31:45.267Z,1.60
2022-10-14T10:34:30.813Z,2.03
2022-10-14T10:37:18.239Z,1.53
2022-10-14T10:40:03.963Z,1.80
2022-10-14T10:42:39.772Z,1.70
2022-10-14T10:45:17.452Z,1.50
2022-10-14T10:47:48.683Z,1.70
2022-10-14T10:50:29.247Z,1.90
2022-10-14T10:53:01.162Z,1.97
2022-10-14T10:55:37.024Z,1.57
2022-10-14T10:58:24.848Z,2.10
2022-10-14T11:01:06.623Z,1.70
2022-10-14T11:03:33.682Z,1.97
2022-10-14T11:06:39.589Z,1.67
2022-10-14T11:09:31.135Z,1.80
2022-10-14T11:12:06.450Z,1.60
2022-10-14T11:14:36.499Z,1.60
2022-10-14T11:17:06.427Z,1.47
2022-10-14T11:19:37.741Z,1.90
2022-10-14T11:22:16.367Z,1.80
2022-10-14T11:25:06.730Z,1.53
2022-10-14T11:27:52.458Z,1.80
2022-10-14T11:30:20.948Z,1.50
2022-10-14T11:32:51.052Z,1.60
2022-10-14T11:35:25.220Z,1.50
2022-10-14T11:38:03.615Z,1.30
2022-10-14T11:40:43.490Z,1.80
2022-10-14T11:43:22.902Z,1.60
2022-10-14T11:45:58.531Z,1.70
2022-10-14T11:48:33.352Z,1.60
2022-10-14T11:51:09.845Z,1.50
2022-10-14T11:53:55.408Z,1.80
2022-10-14T11:56:37.600Z,1.70
2022-10-14T11:59:24.673Z,1.47
2022-10-14T12:01:54.783Z,1.37
2022-10-14T12:04:28.388Z,1.40
2022-10-14T12:07:03.227Z,1.67
2022-10-14T12:09:42.175Z,2.33
2022-10-14T12:12:11.125Z,1.77
2022-10-14T12:14:50.168Z,1.67
2022-10-14T12:17:21.121Z,1.60
2022-10-14T12:19:48.898Z,1.73
2022-10-14T12:22:19.429Z,1.50
2022-10-14T12:24:52.716Z,1.40
2022-10-14T12:27:20.777Z,1.60
2022-10-14T12:29:49.855Z,1.60
2022-10-14T12:32:17.075Z,1.60
2022-10-14T12:34:45.000Z,1.70
2022-10-14T12:37:37.958Z,1.60
2022-10-14T12:40:06.670Z,1.70
2022-10-14T12:42:36.022Z,1.50
2022-10-14T12:45:17.186Z,1.40
2022-10-14T12:47:44.324Z,1.47
2022-10-14T12:50:18.627Z,1.50
2022-10-14T12:52:48.118Z,1.70
2022-10-14T12:55:18.135Z,1.73
2022-10-14T12:57:52.734Z,2.17
2022-10-14T13:00:22.552Z,1.70
2022-10-14T13:02:51.372Z,1.33
2022-10-14T13:05:38.227Z,1.50
2022-10-14T13:08:20.628Z,1.70
2022-10-14T13:11:00.281Z,1.50
2022-10-14T13:13:44.791Z,1.50
2022-10-14T13:16:31.812Z,1.70
2022-10-14T13:19:00.130Z,1.40
2022-10-14T13:21:27.184Z,1.80
2022-10-14T13:23:55.209Z,1.47
2022-10-14T13:26:31.919Z,1.57
2022-10-14T13:29:05.243Z,1.90
2022-10-14T13:31:38.128Z,1.80
2022-10-14T13:34:13.775Z,1.97
2022-10-14T13:36:50.106Z,1.60
2022-10-14T13:39:17.229Z,1.60
2022-10-14T13:41:45.451Z,3.67
2022-10-14T13:44:12.934Z,1.90
2022-10-14T13:46:43.468Z,2.10
2022-10-14T13:51:53.363Z,3.00
2022-10-14T13:54:28.287Z,1.70
2022-10-14T13:57:19.856Z,1.93
2022-10-14T14:00:19.537Z,1.80
2022-10-14T14:02:34.623Z,1.57
2022-10-14T14:05:01.752Z,1.90
2022-10-14T14:10:23.667Z,1.97
2022-10-14T14:12:51.084Z,1.67
2022-10-14T14:15:25.997Z,1.63
2022-10-14T14:17:54.034Z,1.77
2022-10-14T14:20:22.860Z,1.33
2022-10-14T14:22:50.684Z,1.60
2022-10-14T14:25:34.934Z,1.83
2022-10-14T14:28:05.652Z,1.50
2022-10-14T14:30:34.600Z,1.80
2022-10-14T14:33:03.030Z,1.97
2022-10-14T14:35:30.539Z,1.80
2022-10-14T14:37:57.838Z,2.20
2022-10-14T14:40:26.467Z,1.63
2022-10-14T14:43:00.691Z,1.70
2022-10-14T14:45:32.398Z,1.47
2022-10-14T14:48:02.467Z,1.50
2022-10-14T14:50:32.916Z,1.40
2022-10-14T14:53:22.580Z,1.67
2022-10-14T14:56:00.423Z,1.80
2022-10-14T14:58:34.023Z,1.77
2022-10-14T15:01:01.145Z,2.10
2022-10-14T15:03:29.647Z,1.70
2022-10-14T15:06:01.483Z,1.83
2022-10-14T15:08:31.538Z,1.50
2022-10-14T15:10:59.390Z,1.67
2022-10-14T15:13:43.485Z,1.90
2022-10-14T15:16:10.655Z,2.00
2022-10-14T15:18:37.931Z,1.53
2022-10-14T15:21:15.599Z,2.03
2022-10-14T15:23:53.304Z,1.70
2022-10-14T15:26:36.798Z,2.10
2022-10-14T15:29:13.959Z,2.13
2022-10-14T15:31:41.635Z,1.87
2022-10-14T15:34:26.832Z,1.83
2022-10-14T15:36:54.167Z,1.80
2022-10-14T15:39:22.046Z,1.87
2022-10-14T15:41:49.453Z,2.10
2022-10-14T15:44:16.534Z,2.00
2022-10-14T15:47:03.512Z,2.00
2022-10-14T15:49:36.828Z,1.70
2022-10-14T15:52:04.493Z,1.90
2022-10-14T15:54:31.588Z,2.13
2022-10-14T15:56:58.986Z,1.90
2022-10-14T15:59:26.771Z,1.70
2022-10-14T16:01:53.988Z,2.30
2022-10-14T16:04:24.362Z,1.87
2022-10-14T16:06:54.905Z,1.90
2022-10-14T16:09:22.975Z,2.10
2022-10-14T16:11:57.055Z,2.20
2022-10-14T16:14:25.114Z,1.90
2022-10-14T16:16:52.203Z,2.27
2022-10-14T16:19:19.355Z,2.20
2022-10-14T16:21:47.839Z,2.50
2022-10-14T16:24:19.047Z,2.03
2022-10-14T16:26:47.315Z,2.33
2022-10-14T16:29:14.654Z,2.03
2022-10-14T16:31:41.808Z,2.80
2022-10-14T16:34:10.242Z,1.87
2022-10-14T16:36:38.083Z,2.17
2022-10-14T16:39:05.256Z,2.17
2022-10-14T16:41:32.348Z,2.30
2022-10-14T16:43:59.406Z,2.47
2022-10-14T16:46:46.432Z,2.30
2022-10-14T16:49:14.248Z,2.53
2022-10-14T16:51:42.457Z,2.57
2022-10-14T16:54:10.030Z,2.47
2022-10-14T16:56:52.563Z,2.47
2022-10-14T16:59:20.164Z,2.30
2022-10-14T17:01:47.282Z,2.53
2022-10-14T17:04:14.395Z,2.37
2022-10-14T17:06:41.557Z,2.40
2022-10-14T17:09:08.815Z,2.70
2022-10-14T17:11:35.888Z,2.53
2022-10-14T17:14:03.044Z,2.53
2022-10-14T17:16:30.275Z,2.60
2022-10-14T17:18:58.341Z,2.40
2022-10-14T17:21:29.288Z,2.70
2022-10-14T17:24:03.345Z,2.80
2022-10-14T17:26:31.333Z,2.90
2022-10-14T17:28:58.684Z,2.60
2022-10-14T17:31:26.559Z,2.90
2022-10-14T17:33:53.984Z,2.60
2022-10-14T17:36:22.906Z,3.00
2022-10-14T17:38:53.719Z,2.70
2022-10-14T17:41:20.862Z,2.60
2022-10-14T17:43:49.596Z,2.67
2022-10-14T17:46:19.073Z,2.97
2022-10-14T17:48:49.138Z,3.07
2022-10-14T17:51:16.253Z,2.77
2022-10-14T17:53:43.445Z,2.80
2022-10-14T17:56:12.116Z,2.83
2022-10-14T17:58:39.462Z,2.80
2022-10-14T18:01:07.200Z,2.70
2022-10-14T18:03:34.891Z,2.60
2022-10-14T18:06:20.375Z,2.63
2022-10-14T18:08:51.463Z,2.67
2022-10-14T18:11:19.079Z,3.00
2022-10-14T18:13:49.913Z,3.00
2022-10-14T18:16:17.216Z,3.27
2022-10-14T18:18:44.757Z,3.73
2022-10-14T18:21:12.003Z,3.20
2022-10-14T18:23:40.536Z,2.73
2022-10-14T18:26:13.477Z,3.20
2022-10-14T18:28:42.163Z,3.37
2022-10-14T18:31:10.892Z,2.70
2022-10-14T18:33:38.803Z,2.80
2022-10-14T18:36:06.927Z,3.07
2022-10-14T18:38:35.858Z,3.23
2022-10-14T18:41:04.307Z,3.03
2022-10-14T18:43:31.751Z,3.00
2022-10-14T18:46:18.062Z,7.60
2022-10-14T18:48:49.500Z,3.20
2022-10-14T18:51:17.713Z,3.10
2022-10-14T18:53:45.696Z,3.37
2022-10-14T18:56:17.276Z,3.10
2022-10-14T18:58:45.230Z,3.30
2022-10-14T19:01:12.831Z,3.20
2022-10-14T19:03:40.316Z,3.30
2022-10-14T19:06:08.106Z,3.00
2022-10-14T19:08:36.998Z,3.10
2022-10-14T19:11:05.043Z,3.00
2022-10-14T19:13:32.430Z,3.40
2022-10-14T19:16:02.609Z,3.13
2022-10-14T19:18:29.842Z,3.27
2022-10-14T19:21:03.443Z,3.20
2022-10-14T19:23:30.571Z,3.83
2022-10-14T19:25:59.169Z,3.77
2022-10-14T19:28:26.337Z,3.77
2022-10-14T19:30:53.441Z,3.47
2022-10-14T19:33:20.548Z,3.40
2022-10-14T19:35:56.916Z,3.80
2022-10-14T19:38:24.097Z,3.50
2022-10-14T19:40:51.185Z,3.67
2022-10-14T19:43:18.357Z,3.97
2022-10-14T19:45:46.963Z,3.70
2022-10-14T19:48:16.642Z,3.80
2022-10-14T19:50:43.739Z,3.63
2022-10-14T19:53:10.983Z,3.77
2022-10-14T19:55:38.382Z,3.80
2022-10-14T19:58:06.511Z,4.03
2022-10-14T20:00:34.578Z,4.17
2022-10-14T20:03:01.709Z,3.93
2022-10-14T20:05:29.158Z,4.10
2022-10-14T20:07:57.199Z,3.93
2022-10-14T20:10:24.298Z,4.40
2022-10-14T20:12:51.376Z,3.93
2022-10-14T20:15:18.510Z,5.73
2022-10-14T20:17:45.699Z,4.20
2022-10-14T20:20:12.907Z,4.20
2022-10-14T20:22:40.005Z,4.57
2022-10-14T20:25:07.227Z,4.53
2022-10-14T20:27:34.322Z,4.50
2022-10-14T20:30:01.400Z,4.73
2022-10-14T20:32:28.479Z,5.20
2022-10-14T20:34:55.546Z,4.13
2022-10-14T20:37:25.733Z,5.03
2022-10-14T20:39:55.329Z,4.80
2022-10-14T20:42:22.405Z,5.00
2022-10-14T20:44:49.508Z,5.13
2022-10-14T20:47:16.588Z,5.47
2022-10-14T20:49:43.779Z,5.17
2022-10-14T20:52:10.988Z,5.30
2022-10-14T20:54:38.092Z,6.10
2022-10-14T20:57:05.318Z,5.93
2022-10-14T20:59:32.445Z,6.43
2022-10-14T21:01:59.505Z,6.13
2022-10-14T21:04:26.585Z,6.03
2022-10-14T21:06:53.668Z,6.10
2022-10-14T21:09:20.778Z,6.50
2022-10-14T21:11:48.192Z,6.43
2022-10-14T21:14:15.505Z,6.20
2022-10-14T21:16:42.832Z,6.27
2022-10-14T21:19:10.898Z,6.60
2022-10-14T21:21:42.390Z,6.13
2022-10-14T21:24:11.427Z,6.07
2022-10-14T21:26:38.595Z,6.57
2022-10-14T21:29:05.748Z,6.37
2022-10-14T21:31:33.355Z,6.57
2022-10-14T21:34:05.702Z,5.83
2022-10-14T21:36:34.018Z,5.90
2022-10-14T21:39:01.894Z,6.03
2022-10-14T21:41:29.035Z,5.83
2022-10-14T21:43:58.742Z,5.87
2022-10-14T21:46:26.646Z,5.37
2022-10-14T21:48:55.595Z,5.50
2022-10-14T21:51:22.671Z,5.23
2022-10-14T21:53:49.735Z,5.67
2022-10-14T21:56:17.458Z,5.20
2022-10-14T21:58:44.899Z,5.03
2022-10-14T22:01:13.824Z,5.27
2022-10-14T22:03:41.288Z,4.93
2022-10-14T22:06:12.059Z,5.43
2022-10-14T22:08:40.990Z,4.90
2022-10-14T22:11:08.544Z,5.10
2022-10-14T22:13:35.901Z,5.27
2022-10-14T22:16:02.985Z,5.43
2022-10-14T22:18:30.118Z,5.23
2022-10-14T22:21:03.772Z,5.27
2022-10-14T22:23:30.966Z,5.80
2022-10-14T22:26:01.753Z,5.47
2022-10-14T22:28:30.733Z,5.73
2022-10-14T22:31:04.334Z,6.07
2022-10-14T22:33:31.449Z,5.27
2022-10-14T22:36:07.842Z,6.20
2022-10-14T22:38:35.394Z,6.10
2022-10-14T22:41:02.717Z,6.00
2022-10-14T22:43:29.793Z,6.10
2022-10-14T22:46:00.724Z,6.43
2022-10-14T22:48:29.268Z,5.97
2022-10-14T22:50:56.630Z,6.40
2022-10-14T22:53:23.806Z,6.20
2022-10-14T22:55:51.627Z,6.40
2022-10-14T22:58:18.751Z,6.57
2022-10-14T23:00:46.113Z,6.53
2022-10-14T23:03:13.307Z,7.00
2022-10-14T23:05:40.434Z,7.03
2022-10-14T23:08:12.003Z,6.67
2022-10-14T23:10:39.320Z,6.87
2022-10-14T23:13:06.711Z,7.03
2022-10-14T23:15:34.323Z,6.73
2022-10-14T23:18:01.403Z,7.20
2022-10-14T23:20:28.603Z,7.43
2022-10-14T23:22:55.689Z,7.63
2022-10-14T23:25:22.746Z,7.60
2022-10-14T23:30:21.897Z,7.60
2022-10-14T23:32:48.955Z,7.20
2022-10-14T23:35:16.059Z,7.20
2022-10-14T23:37:43.145Z,8.20
2022-10-14T23:40:10.497Z,7.90
2022-10-14T23:42:37.609Z,7.33
2022-10-14T23:45:04.795Z,7.97
2022-10-14T23:47:31.889Z,8.27
2022-10-14T23:49:59.063Z,7.87
2022-10-14T23:52:26.502Z,7.63
2022-10-14T23:54:53.678Z,8.67
2022-10-14T23:57:21.308Z,7.83
2022-10-14T23:59:48.829Z,8.20
